sensor_id;sensor_type;location;lat;lon;timestamp;pressure;altitude;pressure_sealevel;temperature;humidity
11525;BME280;5819;49.648;8.330;2024-03-02T00:02:22;99247.03;;;5.33;100.00
11525;BME280;5819;49.648;8.330;2024-03-02T00:04:52;99234.59;;;5.42;100.00
11525;BME280;5819;49.648;8.330;2024-03-02T00:07:21;99230.59;;;5.35;100.00
11525;BME280;5819;49.648;8.330;2024-03-02T00:09:52;99245.16;;;5.14;100.00
11525;BME280;5819;49.648;8.330;2024-03-02T00:12:21;99258.63;;;4.99;100.00
11525;BME280;5819;49.648;8.330;2024-03-02T00:14:49;99257.84;;;4.97;100.00
11525;BME280;5819;49.648;8.330;2024-03-02T00:17:24;99264.91;;;4.92;100.00
11525;BME280;5819;49.648;8.330;2024-03-02T00:19:52;99262.31;;;4.92;100.00
11525;BME280;5819;49.648;8.330;2024-03-02T00:22:20;99247.03;;;4.88;100.00
11525;BME280;5819;49.648;8.330;2024-03-02T00:24:49;99251.38;;;4.86;100.00
11525;BME280;5819;49.648;8.330;2024-03-02T00:27:18;99260.94;;;4.84;100.00
11525;BME280;5819;49.648;8.330;2024-03-02T00:29:48;99267.97;;;4.79;100.00
11525;BME280;5819;49.648;8.330;2024-03-02T00:32:16;99260.41;;;4.74;100.00
11525;BME280;5819;49.648;8.330;2024-03-02T00:34:46;99260.41;;;4.74;100.00
11525;BME280;5819;49.648;8.330;2024-03-02T00:37:14;99264.78;;;4.72;100.00
11525;BME280;5819;49.648;8.330;2024-03-02T00:39:42;99262.38;;;4.67;100.00
11525;BME280;5819;49.648;8.330;2024-03-02T00:42:11;99273.72;;;4.62;100.00
11525;BME280;5819;49.648;8.330;2024-03-02T00:44:39;99267.00;;;4.58;100.00
11525;BME280;5819;49.648;8.330;2024-03-02T00:47:08;99275.72;;;4.54;100.00
11525;BME280;5819;49.648;8.330;2024-03-02T00:49:36;99281.59;;;4.57;100.00
11525;BME280;5819;49.648;8.330;2024-03-02T00:52:09;99276.22;;;4.65;100.00
11525;BME280;5819;49.648;8.330;2024-03-02T00:54:37;99274.69;;;4.59;100.00
11525;BME280;5819;49.648;8.330;2024-03-02T00:57:10;99273.16;;;4.54;100.00
11525;BME280;5819;49.648;8.330;2024-03-02T00:59:39;99277.47;;;4.53;100.00
11525;BME280;5819;49.648;8.330;2024-03-02T01:02:07;99267.72;;;4.61;100.00
11525;BME280;5819;49.648;8.330;2024-03-02T01:04:36;99274.88;;;4.53;100.00
11525;BME280;5819;49.648;8.330;2024-03-02T01:07:04;99266.50;;;4.48;100.00
11525;BME280;5819;49.648;8.330;2024-03-02T01:09:34;99276.66;;;4.53;100.00
11525;BME280;5819;49.648;8.330;2024-03-02T01:12:02;99264.44;;;4.58;100.00
11525;BME280;5819;49.648;8.330;2024-03-02T01:14:31;99275.13;;;4.47;100.00
11525;BME280;5819;49.648;8.330;2024-03-02T01:16:59;99268.50;;;4.40;100.00
11525;BME280;5819;49.648;8.330;2024-03-02T01:19:30;99260.09;;;4.35;100.00
11525;BME280;5819;49.648;8.330;2024-03-02T01:21:58;99260.13;;;4.34;100.00
11525;BME280;5819;49.648;8.330;2024-03-02T01:24:26;99255.75;;;4.37;100.00
11525;BME280;5819;49.648;8.330;2024-03-02T01:26:57;99256.53;;;4.39;100.00
11525;BME280;5819;49.648;8.330;2024-03-02T01:29:25;99254.84;;;4.38;100.00
11525;BME280;5819;49.648;8.330;2024-03-02T01:31:53;99250.59;;;4.37;100.00
11525;BME280;5819;49.648;8.330;2024-03-02T01:34:20;99248.91;;;4.36;100.00
11525;BME280;5819;49.648;8.330;2024-03-02T01:36:49;99241.31;;;4.33;100.00
11525;BME280;5819;49.648;8.330;2024-03-02T01:39:17;99247.38;;;4.31;100.00
11525;BME280;5819;49.648;8.330;2024-03-02T01:41:45;99246.53;;;4.30;100.00
11525;BME280;5819;49.648;8.330;2024-03-02T01:44:15;99241.56;;;4.25;100.00
11525;BME280;5819;49.648;8.330;2024-03-02T01:46:43;99243.19;;;4.28;100.00
11525;BME280;5819;49.648;8.330;2024-03-02T01:49:12;99239.72;;;4.29;100.00
11525;BME280;5819;49.648;8.330;2024-03-02T01:51:40;99245.66;;;4.31;100.00
11525;BME280;5819;49.648;8.330;2024-03-02T01:54:09;99237.88;;;4.33;100.00
11525;BME280;5819;49.648;8.330;2024-03-02T01:56:37;99238.03;;;4.28;100.00
11525;BME280;5819;49.648;8.330;2024-03-02T01:59:06;99240.56;;;4.30;100.00
11525;BME280;5819;49.648;8.330;2024-03-02T02:01:35;99233.78;;;4.27;100.00
11525;BME280;5819;49.648;8.330;2024-03-02T02:04:04;99241.38;;;4.30;100.00
11525;BME280;5819;49.648;8.330;2024-03-02T02:06:33;99233.41;;;4.38;100.00
11525;BME280;5819;49.648;8.330;2024-03-02T02:09:01;99233.41;;;4.38;100.00
11525;BME280;5819;49.648;8.330;2024-03-02T02:11:29;99237.38;;;4.46;100.00
11525;BME280;5819;49.648;8.330;2024-03-02T02:13:58;99232.97;;;4.50;100.00
11525;BME280;5819;49.648;8.330;2024-03-02T02:16:26;99222.91;;;4.44;100.00
11525;BME280;5819;49.648;8.330;2024-03-02T02:18:56;99230.38;;;4.50;100.00
11525;BME280;5819;49.648;8.330;2024-03-02T02:21:27;99215.13;;;4.45;100.00
11525;BME280;5819;49.648;8.330;2024-03-02T02:23:55;99226.47;;;4.40;100.00
11525;BME280;5819;49.648;8.330;2024-03-02T02:26:23;99223.31;;;4.56;100.00
11525;BME280;5819;49.648;8.330;2024-03-02T02:28:52;99221.22;;;4.43;100.00
11525;BME280;5819;49.648;8.330;2024-03-02T02:31:20;99213.72;;;4.37;100.00
11525;BME280;5819;49.648;8.330;2024-03-02T02:33:48;99214.88;;;4.28;100.00
11525;BME280;5819;49.648;8.330;2024-03-02T02:36:17;99223.06;;;4.14;100.00
11525;BME280;5819;49.648;8.330;2024-03-02T02:38:49;99219.50;;;4.18;100.00
11525;BME280;5819;49.648;8.330;2024-03-02T02:41:18;99221.34;;;4.15;100.00
11525;BME280;5819;49.648;8.330;2024-03-02T02:43:46;99225.53;;;4.17;100.00
11525;BME280;5819;49.648;8.330;2024-03-02T02:46:15;99222.19;;;4.15;100.00
11525;BME280;5819;49.648;8.330;2024-03-02T02:48:43;99221.22;;;4.18;100.00
11525;BME280;5819;49.648;8.330;2024-03-02T02:51:11;99206.75;;;4.15;100.00
11525;BME280;5819;49.648;8.330;2024-03-02T02:53:39;99218.72;;;4.16;100.00
11525;BME280;5819;49.648;8.330;2024-03-02T02:56:10;99210.91;;;4.19;100.00
11525;BME280;5819;49.648;8.330;2024-03-02T02:58:40;99200.75;;;4.15;100.00
11525;BME280;5819;49.648;8.330;2024-03-02T03:01:08;99202.63;;;4.10;100.00
11525;BME280;5819;49.648;8.330;2024-03-02T03:03:37;99200.19;;;4.07;100.00
11525;BME280;5819;49.648;8.330;2024-03-02T03:06:06;99208.03;;;3.77;100.00
11525;BME280;5819;49.648;8.330;2024-03-02T03:08:34;99210.09;;;3.68;100.00
11525;BME280;5819;49.648;8.330;2024-03-02T03:11:02;99212.59;;;3.69;100.00
11525;BME280;5819;49.648;8.330;2024-03-02T03:13:34;99206.22;;;3.81;100.00
11525;BME280;5819;49.648;8.330;2024-03-02T03:16:03;99203.13;;;3.96;100.00
11525;BME280;5819;49.648;8.330;2024-03-02T03:18:31;99193.84;;;3.92;100.00
11525;BME280;5819;49.648;8.330;2024-03-02T03:20:59;99193.19;;;3.86;100.00
11525;BME280;5819;49.648;8.330;2024-03-02T03:23:27;99190.81;;;3.81;100.00
11525;BME280;5819;49.648;8.330;2024-03-02T03:25:56;99193.09;;;3.89;100.00
11525;BME280;5819;49.648;8.330;2024-03-02T03:28:24;99187.22;;;3.85;100.00
11525;BME280;5819;49.648;8.330;2024-03-02T03:30:53;99197.09;;;3.72;100.00
11525;BME280;5819;49.648;8.330;2024-03-02T03:33:22;99195.56;;;3.67;100.00
11525;BME280;5819;49.648;8.330;2024-03-02T03:35:50;99198.13;;;3.67;100.00
11525;BME280;5819;49.648;8.330;2024-03-02T03:38:19;99203.25;;;3.67;100.00
11525;BME280;5819;49.648;8.330;2024-03-02T03:40:47;99197.94;;;3.73;100.00
11525;BME280;5819;49.648;8.330;2024-03-02T03:43:16;99199.59;;;3.74;100.00
11525;BME280;5819;49.648;8.330;2024-03-02T03:45:44;99189.00;;;3.83;100.00
11525;BME280;5819;49.648;8.330;2024-03-02T03:48:13;99187.97;;;3.89;100.00
11525;BME280;5819;49.648;8.330;2024-03-02T03:50:42;99179.13;;;3.96;100.00
11525;BME280;5819;49.648;8.330;2024-03-02T03:53:10;99190.44;;;3.92;100.00
11525;BME280;5819;49.648;8.330;2024-03-02T03:55:39;99192.41;;;3.84;100.00
11525;BME280;5819;49.648;8.330;2024-03-02T03:58:07;99197.75;;;3.77;100.00
11525;BME280;5819;49.648;8.330;2024-03-02T04:00:35;99199.50;;;3.77;100.00
11525;BME280;5819;49.648;8.330;2024-03-02T04:03:04;99198.56;;;3.80;100.00
11525;BME280;5819;49.648;8.330;2024-03-02T04:05:34;99198.25;;;3.89;100.00
11525;BME280;5819;49.648;8.330;2024-03-02T04:08:02;99194.00;;;3.88;100.00
11525;BME280;5819;49.648;8.330;2024-03-02T04:10:30;99201.81;;;3.85;100.00
11525;BME280;5819;49.648;8.330;2024-03-02T04:12:59;99193.00;;;3.92;100.00
11525;BME280;5819;49.648;8.330;2024-03-02T04:15:27;99203.69;;;3.80;100.00
11525;BME280;5819;49.648;8.330;2024-03-02T04:17:56;99197.41;;;3.88;100.00
11525;BME280;5819;49.648;8.330;2024-03-02T04:20:24;99212.00;;;3.88;100.00
11525;BME280;5819;49.648;8.330;2024-03-02T04:22:54;99206.28;;;3.80;100.00
11525;BME280;5819;49.648;8.330;2024-03-02T04:25:22;99201.91;;;3.82;100.00
11525;BME280;5819;49.648;8.330;2024-03-02T04:27:51;99199.19;;;3.86;100.00
11525;BME280;5819;49.648;8.330;2024-03-02T04:30:19;99201.09;;;3.81;100.00
11525;BME280;5819;49.648;8.330;2024-03-02T04:32:47;99196.25;;;3.72;100.00
11525;BME280;5819;49.648;8.330;2024-03-02T04:35:16;99209.50;;;3.60;100.00
11525;BME280;5819;49.648;8.330;2024-03-02T04:37:44;99215.75;;;3.53;100.00
11525;BME280;5819;49.648;8.330;2024-03-02T04:40:14;99215.41;;;3.62;100.00
11525;BME280;5819;49.648;8.330;2024-03-02T04:42:42;99211.09;;;3.64;100.00
11525;BME280;5819;49.648;8.330;2024-03-02T04:45:11;99218.53;;;3.71;100.00
11525;BME280;5819;49.648;8.330;2024-03-02T04:47:39;99215.97;;;3.71;100.00
11525;BME280;5819;49.648;8.330;2024-03-02T04:50:07;99217.69;;;3.71;100.00
11525;BME280;5819;49.648;8.330;2024-03-02T04:52:36;99217.81;;;3.68;100.00
11525;BME280;5819;49.648;8.330;2024-03-02T04:55:04;99216.47;;;3.56;100.00
11525;BME280;5819;49.648;8.330;2024-03-02T04:57:57;99220.81;;;3.54;100.00
11525;BME280;5819;49.648;8.330;2024-03-02T05:00:26;99227.78;;;3.51;100.00
11525;BME280;5819;49.648;8.330;2024-03-02T05:02:54;99224.22;;;3.55;100.00
11525;BME280;5819;49.648;8.330;2024-03-02T05:05:22;99234.34;;;3.61;100.00
11525;BME280;5819;49.648;8.330;2024-03-02T05:07:50;99227.28;;;3.66;100.00
11525;BME280;5819;49.648;8.330;2024-03-02T05:10:19;99225.31;;;3.74;100.00
11525;BME280;5819;49.648;8.330;2024-03-02T05:12:47;99229.56;;;3.75;100.00
11525;BME280;5819;49.648;8.330;2024-03-02T05:15:35;99231.41;;;3.71;100.00
11525;BME280;5819;49.648;8.330;2024-03-02T05:18:04;99235.81;;;3.68;100.00
11525;BME280;5819;49.648;8.330;2024-03-02T05:20:33;99234.16;;;3.65;100.00
11525;BME280;5819;49.648;8.330;2024-03-02T05:23:01;99235.59;;;3.74;100.00
11525;BME280;5819;49.648;8.330;2024-03-02T05:25:29;99231.00;;;3.84;100.00
11525;BME280;5819;49.648;8.330;2024-03-02T05:27:57;99233.47;;;3.87;100.00
11525;BME280;5819;49.648;8.330;2024-03-02T05:30:26;99236.72;;;3.92;100.00
11525;BME280;5819;49.648;8.330;2024-03-02T05:32:55;99239.22;;;3.93;100.00
11525;BME280;5819;49.648;8.330;2024-03-02T05:35:24;99231.47;;;3.95;100.00
11525;BME280;5819;49.648;8.330;2024-03-02T05:37:53;99236.56;;;3.96;100.00
11525;BME280;5819;49.648;8.330;2024-03-02T05:40:21;99234.66;;;4.01;100.00
11525;BME280;5819;49.648;8.330;2024-03-02T05:42:50;99229.38;;;4.06;100.00
11525;BME280;5819;49.648;8.330;2024-03-02T05:45:18;99232.66;;;4.09;100.00
11525;BME280;5819;49.648;8.330;2024-03-02T05:47:47;99236.06;;;4.11;100.00
11525;BME280;5819;49.648;8.330;2024-03-02T05:50:17;99239.09;;;4.22;100.00
11525;BME280;5819;49.648;8.330;2024-03-02T05:52:46;99239.94;;;4.23;100.00
11525;BME280;5819;49.648;8.330;2024-03-02T05:55:14;99240.72;;;4.25;100.00
11525;BME280;5819;49.648;8.330;2024-03-02T05:57:43;99239.88;;;4.24;100.00
11525;BME280;5819;49.648;8.330;2024-03-02T06:00:26;99245.13;;;4.21;100.00
11525;BME280;5819;49.648;8.330;2024-03-02T06:02:54;99248.63;;;4.20;100.00
11525;BME280;5819;49.648;8.330;2024-03-02T06:05:24;99245.09;;;4.23;100.00
11525;BME280;5819;49.648;8.330;2024-03-02T06:07:53;99251.25;;;4.17;100.00
11525;BME280;5819;49.648;8.330;2024-03-02T06:10:21;99243.50;;;4.19;100.00
11525;BME280;5819;49.648;8.330;2024-03-02T06:12:50;99243.50;;;4.19;100.00
11525;BME280;5819;49.648;8.330;2024-03-02T06:15:18;99236.63;;;4.19;100.00
11525;BME280;5819;49.648;8.330;2024-03-02T06:17:46;99251.50;;;4.11;100.00
11525;BME280;5819;49.648;8.330;2024-03-02T06:20:15;99257.47;;;4.12;100.00
11525;BME280;5819;49.648;8.330;2024-03-02T06:22:45;99252.22;;;4.15;100.00
11525;BME280;5819;49.648;8.330;2024-03-02T06:25:14;99246.97;;;4.18;100.00
11525;BME280;5819;49.648;8.330;2024-03-02T06:27:43;99247.03;;;4.16;100.00
11525;BME280;5819;49.648;8.330;2024-03-02T06:30:13;99243.47;;;4.20;100.00
11525;BME280;5819;49.648;8.330;2024-03-02T06:32:42;99256.09;;;4.27;100.00
11525;BME280;5819;49.648;8.330;2024-03-02T06:35:11;99261.22;;;4.28;100.00
11525;BME280;5819;49.648;8.330;2024-03-02T06:37:40;99261.22;;;4.28;100.00
11525;BME280;5819;49.648;8.330;2024-03-02T06:40:10;99269.66;;;4.32;100.00
11525;BME280;5819;49.648;8.330;2024-03-02T06:42:39;99271.19;;;4.37;100.00
11525;BME280;5819;49.648;8.330;2024-03-02T06:45:07;99267.63;;;4.41;100.00
11525;BME280;5819;49.648;8.330;2024-03-02T06:47:35;99264.28;;;4.38;100.00
11525;BME280;5819;49.648;8.330;2024-03-02T06:50:04;99272.97;;;4.35;100.00
11525;BME280;5819;49.648;8.330;2024-03-02T06:52:34;99262.50;;;4.40;100.00
11525;BME280;5819;49.648;8.330;2024-03-02T06:55:02;99272.81;;;4.40;100.00
11525;BME280;5819;49.648;8.330;2024-03-02T06:57:33;99265.13;;;4.38;100.00
11525;BME280;5819;49.648;8.330;2024-03-02T07:00:03;99272.94;;;4.37;100.00
11525;BME280;5819;49.648;8.330;2024-03-02T07:02:32;99265.06;;;4.41;100.00
11525;BME280;5819;49.648;8.330;2024-03-02T07:05:01;99272.53;;;4.47;100.00
11525;BME280;5819;49.648;8.330;2024-03-02T07:07:31;99265.50;;;4.52;100.00
11525;BME280;5819;49.648;8.330;2024-03-02T07:09:59;99266.13;;;4.59;100.00
11525;BME280;5819;49.648;8.330;2024-03-02T07:12:28;99265.72;;;4.69;100.00
11525;BME280;5819;49.648;8.330;2024-03-02T07:14:57;99269.78;;;4.77;100.00
11525;BME280;5819;49.648;8.330;2024-03-02T07:17:45;99266.84;;;4.86;100.00
11525;BME280;5819;49.648;8.330;2024-03-02T07:20:14;99271.28;;;5.05;100.00
11525;BME280;5819;49.648;8.330;2024-03-02T07:22:43;99266.72;;;5.12;100.00
11525;BME280;5819;49.648;8.330;2024-03-02T07:25:12;99260.78;;;5.33;100.00
11525;BME280;5819;49.648;8.330;2024-03-02T07:27:43;99262.97;;;5.21;100.00
11525;BME280;5819;49.648;8.330;2024-03-02T07:30:15;99272.28;;;5.25;100.00
11525;BME280;5819;49.648;8.330;2024-03-02T07:32:45;99276.03;;;5.38;100.00
11525;BME280;5819;49.648;8.330;2024-03-02T07:35:13;99279.81;;;5.51;100.00
11525;BME280;5819;49.648;8.330;2024-03-02T07:37:42;99277.31;;;5.49;100.00
11525;BME280;5819;49.648;8.330;2024-03-02T07:40:11;99281.56;;;5.50;100.00
11525;BME280;5819;49.648;8.330;2024-03-02T07:42:41;99281.06;;;5.62;100.00
11525;BME280;5819;49.648;8.330;2024-03-02T07:45:10;99289.44;;;5.69;100.00
11525;BME280;5819;49.648;8.330;2024-03-02T07:47:40;99283.44;;;5.69;100.00
11525;BME280;5819;49.648;8.330;2024-03-02T07:50:09;99279.81;;;5.73;100.00
11525;BME280;5819;49.648;8.330;2024-03-02T07:52:37;99289.34;;;5.71;100.00
11525;BME280;5819;49.648;8.330;2024-03-02T07:55:07;99287.63;;;5.71;100.00
11525;BME280;5819;49.648;8.330;2024-03-02T07:57:35;99290.44;;;5.87;100.00
11525;BME280;5819;49.648;8.330;2024-03-02T08:00:05;99289.25;;;5.95;100.00
11525;BME280;5819;49.648;8.330;2024-03-02T08:02:37;99280.34;;;6.02;100.00
11525;BME280;5819;49.648;8.330;2024-03-02T08:05:08;99280.94;;;6.09;100.00
11525;BME280;5819;49.648;8.330;2024-03-02T08:07:36;99282.38;;;6.16;100.00
11525;BME280;5819;49.648;8.330;2024-03-02T08:10:06;99284.63;;;6.24;100.00
11525;BME280;5819;49.648;8.330;2024-03-02T08:12:35;99288.69;;;6.29;100.00
11525;BME280;5819;49.648;8.330;2024-03-02T08:15:04;99290.44;;;6.29;100.00
11525;BME280;5819;49.648;8.330;2024-03-02T08:17:33;99287.06;;;6.27;100.00
11525;BME280;5819;49.648;8.330;2024-03-02T08:20:09;99288.25;;;6.20;100.00
11525;BME280;5819;49.648;8.330;2024-03-02T08:22:38;99290.59;;;6.26;100.00
11525;BME280;5819;49.648;8.330;2024-03-02T08:25:07;99284.47;;;6.47;100.00
11525;BME280;5819;49.648;8.330;2024-03-02T08:27:38;99274.22;;;6.66;100.00
11525;BME280;5819;49.648;8.330;2024-03-02T08:30:08;99272.44;;;6.66;100.00
11525;BME280;5819;49.648;8.330;2024-03-02T08:32:38;99267.56;;;6.79;100.00
11525;BME280;5819;49.648;8.330;2024-03-02T08:35:08;99258.03;;;6.99;100.00
11525;BME280;5819;49.648;8.330;2024-03-02T08:37:38;99264.59;;;7.25;100.00
11525;BME280;5819;49.648;8.330;2024-03-02T08:40:08;99262.28;;;7.38;100.00
11525;BME280;5819;49.648;8.330;2024-03-02T08:42:39;99266.03;;;7.49;100.00
11525;BME280;5819;49.648;8.330;2024-03-02T08:45:09;99271.91;;;7.53;100.00
11525;BME280;5819;49.648;8.330;2024-03-02T08:47:37;99266.06;;;7.67;100.00
11525;BME280;5819;49.648;8.330;2024-03-02T08:50:06;99264.50;;;7.98;100.00
11525;BME280;5819;49.648;8.330;2024-03-02T08:52:37;99258.09;;;8.23;100.00
11525;BME280;5819;49.648;8.330;2024-03-02T08:55:06;99252.25;;;8.36;100.00
11525;BME280;5819;49.648;8.330;2024-03-02T08:57:35;99257.44;;;8.36;100.00
11525;BME280;5819;49.648;8.330;2024-03-02T09:00:04;99251.06;;;8.59;100.00
11525;BME280;5819;49.648;8.330;2024-03-02T09:02:34;99242.59;;;8.56;100.00
11525;BME280;5819;49.648;8.330;2024-03-02T09:05:04;99252.38;;;8.51;100.00
11525;BME280;5819;49.648;8.330;2024-03-02T09:07:33;99256.81;;;8.49;100.00
11525;BME280;5819;49.648;8.330;2024-03-02T09:10:04;99248.16;;;8.65;100.00
11525;BME280;5819;49.648;8.330;2024-03-02T09:12:33;99242.75;;;8.70;100.00
11525;BME280;5819;49.648;8.330;2024-03-02T09:15:02;99245.69;;;8.95;100.00
11525;BME280;5819;49.648;8.330;2024-03-02T09:17:32;99233.97;;;9.04;100.00
11525;BME280;5819;49.648;8.330;2024-03-02T09:20:01;99238.34;;;9.03;100.00
11525;BME280;5819;49.648;8.330;2024-03-02T09:22:32;99228.25;;;9.14;100.00
11525;BME280;5819;49.648;8.330;2024-03-02T09:25:00;99232.81;;;9.25;100.00
11525;BME280;5819;49.648;8.330;2024-03-02T09:27:30;99221.34;;;9.45;100.00
11525;BME280;5819;49.648;8.330;2024-03-02T09:29:58;99220.00;;;9.53;100.00
11525;BME280;5819;49.648;8.330;2024-03-02T09:32:27;99225.47;;;9.17;100.00
11525;BME280;5819;49.648;8.330;2024-03-02T09:34:56;99224.28;;;9.38;100.00
11525;BME280;5819;49.648;8.330;2024-03-02T09:37:25;99218.81;;;9.88;100.00
11525;BME280;5819;49.648;8.330;2024-03-02T09:39:54;99202.41;;;10.18;100.00
11525;BME280;5819;49.648;8.330;2024-03-02T09:42:22;99191.19;;;10.46;100.00
11525;BME280;5819;49.648;8.330;2024-03-02T09:44:53;99180.78;;;10.74;100.00
11525;BME280;5819;49.648;8.330;2024-03-02T09:47:21;99181.03;;;10.84;100.00
11525;BME280;5819;49.648;8.330;2024-03-02T09:49:50;99189.84;;;10.95;100.00
11525;BME280;5819;49.648;8.330;2024-03-02T09:52:18;99188.38;;;10.91;100.00
11525;BME280;5819;49.648;8.330;2024-03-02T09:54:47;99188.69;;;10.58;99.65
11525;BME280;5819;49.648;8.330;2024-03-02T09:57:16;99192.66;;;10.64;100.00
11525;BME280;5819;49.648;8.330;2024-03-02T09:59:45;99189.69;;;10.56;100.00
11525;BME280;5819;49.648;8.330;2024-03-02T10:02:15;99185.78;;;10.77;100.00
11525;BME280;5819;49.648;8.330;2024-03-02T10:04:43;99184.19;;;11.15;99.55
11525;BME280;5819;49.648;8.330;2024-03-02T10:07:14;99186.16;;;11.26;98.18
11525;BME280;5819;49.648;8.330;2024-03-02T10:09:45;99183.59;;;11.39;98.61
11525;BME280;5819;49.648;8.330;2024-03-02T10:12:15;99178.72;;;11.20;94.43
11525;BME280;5819;49.648;8.330;2024-03-02T10:14:44;99173.06;;;11.40;93.24
11525;BME280;5819;49.648;8.330;2024-03-02T10:17:17;99169.78;;;11.51;93.51
11525;BME280;5819;49.648;8.330;2024-03-02T10:19:46;99151.44;;;12.17;91.38
11525;BME280;5819;49.648;8.330;2024-03-02T10:22:14;99143.84;;;12.39;88.64
11525;BME280;5819;49.648;8.330;2024-03-02T10:24:43;99142.16;;;12.38;88.10
11525;BME280;5819;49.648;8.330;2024-03-02T10:27:16;99140.31;;;12.77;88.18
11525;BME280;5819;49.648;8.330;2024-03-02T10:29:46;99143.09;;;12.37;88.48
11525;BME280;5819;49.648;8.330;2024-03-02T10:32:16;99159.03;;;11.82;89.96
11525;BME280;5819;49.648;8.330;2024-03-02T10:34:46;99168.66;;;11.28;90.38
11525;BME280;5819;49.648;8.330;2024-03-02T10:37:16;99168.56;;;11.30;90.30
11525;BME280;5819;49.648;8.330;2024-03-02T10:39:46;99164.75;;;11.35;92.15
11525;BME280;5819;49.648;8.330;2024-03-02T10:42:15;99154.66;;;11.43;89.77
11525;BME280;5819;49.648;8.330;2024-03-02T10:44:45;99144.16;;;11.57;87.82
11525;BME280;5819;49.648;8.330;2024-03-02T10:47:14;99140.22;;;11.64;86.92
11525;BME280;5819;49.648;8.330;2024-03-02T10:49:47;99136.47;;;11.68;86.80
11525;BME280;5819;49.648;8.330;2024-03-02T10:52:17;99130.16;;;11.72;86.78
11525;BME280;5819;49.648;8.330;2024-03-02T10:54:45;99128.31;;;11.87;85.61
11525;BME280;5819;49.648;8.330;2024-03-02T10:57:16;99132.81;;;11.58;86.33
11525;BME280;5819;49.648;8.330;2024-03-02T10:59:52;99125.72;;;11.87;87.07
11525;BME280;5819;49.648;8.330;2024-03-02T11:02:25;99112.56;;;12.27;84.81
11525;BME280;5819;49.648;8.330;2024-03-02T11:04:59;99100.84;;;12.32;81.88
11525;BME280;5819;49.648;8.330;2024-03-02T11:07:29;99088.47;;;12.23;78.98
11525;BME280;5819;49.648;8.330;2024-03-02T11:10:01;99102.50;;;12.46;78.83
11525;BME280;5819;49.648;8.330;2024-03-02T11:12:39;99092.66;;;12.62;79.39
11525;BME280;5819;49.648;8.330;2024-03-02T11:15:11;99083.50;;;12.80;76.66
11525;BME280;5819;49.648;8.330;2024-03-02T11:17:44;99084.47;;;12.79;76.08
11525;BME280;5819;49.648;8.330;2024-03-02T11:20:15;99064.50;;;13.15;76.17
11525;BME280;5819;49.648;8.330;2024-03-02T11:22:45;99054.63;;;13.42;74.82
11525;BME280;5819;49.648;8.330;2024-03-02T11:25:23;99053.78;;;13.41;73.75
11525;BME280;5819;49.648;8.330;2024-03-02T11:28:02;99053.59;;;13.55;74.07
11525;BME280;5819;49.648;8.330;2024-03-02T11:30:51;99055.59;;;13.52;74.25
11525;BME280;5819;49.648;8.330;2024-03-02T11:33:24;99043.75;;;13.70;72.81
11525;BME280;5819;49.648;8.330;2024-03-02T11:35:56;99030.78;;;13.57;72.04
11525;BME280;5819;49.648;8.330;2024-03-02T11:38:30;99016.91;;;13.79;70.42
11525;BME280;5819;49.648;8.330;2024-03-02T11:41:00;99012.16;;;13.95;69.34
11525;BME280;5819;49.648;8.330;2024-03-02T11:43:29;99000.34;;;14.34;69.86
11525;BME280;5819;49.648;8.330;2024-03-02T11:45:59;98984.84;;;14.65;68.23
11525;BME280;5819;49.648;8.330;2024-03-02T11:48:29;98991.53;;;14.58;67.82
11525;BME280;5819;49.648;8.330;2024-03-02T11:51:00;98979.06;;;14.50;65.67
11525;BME280;5819;49.648;8.330;2024-03-02T11:53:30;98980.06;;;14.70;66.19
11525;BME280;5819;49.648;8.330;2024-03-02T11:56:02;98950.41;;;14.80;61.10
11525;BME280;5819;49.648;8.330;2024-03-02T11:58:34;98966.91;;;14.60;62.37
11525;BME280;5819;49.648;8.330;2024-03-02T12:01:04;98959.63;;;14.95;62.93
11525;BME280;5819;49.648;8.330;2024-03-02T12:03:32;98939.81;;;15.23;59.97
11525;BME280;5819;49.648;8.330;2024-03-02T12:06:03;98941.09;;;15.89;62.13
11525;BME280;5819;49.648;8.330;2024-03-02T12:08:33;98929.56;;;16.02;60.29
11525;BME280;5819;49.648;8.330;2024-03-02T12:11:02;98928.06;;;16.18;60.04
11525;BME280;5819;49.648;8.330;2024-03-02T12:13:33;98920.25;;;16.47;60.05
11525;BME280;5819;49.648;8.330;2024-03-02T12:16:02;98908.94;;;16.75;57.39
11525;BME280;5819;49.648;8.330;2024-03-02T12:18:31;98898.31;;;16.77;57.43
11525;BME280;5819;49.648;8.330;2024-03-02T12:20:59;98895.91;;;17.49;57.92
11525;BME280;5819;49.648;8.330;2024-03-02T12:23:31;98894.63;;;17.90;56.42
11525;BME280;5819;49.648;8.330;2024-03-02T12:26:00;98899.38;;;17.87;56.20
11525;BME280;5819;49.648;8.330;2024-03-02T12:28:28;98905.75;;;17.84;56.85
11525;BME280;5819;49.648;8.330;2024-03-02T12:31:00;98935.06;;;16.58;58.22
11525;BME280;5819;49.648;8.330;2024-03-02T12:33:28;98936.69;;;15.80;58.35
11525;BME280;5819;49.648;8.330;2024-03-02T12:35:57;98954.59;;;15.75;60.27
11525;BME280;5819;49.648;8.330;2024-03-02T12:38:26;98940.38;;;15.78;60.30
11525;BME280;5819;49.648;8.330;2024-03-02T12:40:57;98957.59;;;15.20;59.95
11525;BME280;5819;49.648;8.330;2024-03-02T12:43:30;98949.81;;;14.77;60.45
11525;BME280;5819;49.648;8.330;2024-03-02T12:45:58;98955.25;;;14.85;61.75
11525;BME280;5819;49.648;8.330;2024-03-02T12:48:27;98945.25;;;15.11;60.15
11525;BME280;5819;49.648;8.330;2024-03-02T12:50:56;98942.28;;;15.25;61.41
11525;BME280;5819;49.648;8.330;2024-03-02T12:53:24;98940.69;;;15.33;60.64
11525;BME280;5819;49.648;8.330;2024-03-02T12:55:52;98926.38;;;15.58;59.10
11525;BME280;5819;49.648;8.330;2024-03-02T12:58:24;98935.97;;;15.48;60.09
11525;BME280;5819;49.648;8.330;2024-03-02T13:01:05;98908.75;;;16.19;57.62
11525;BME280;5819;49.648;8.330;2024-03-02T13:03:35;98896.91;;;16.44;56.79
11525;BME280;5819;49.648;8.330;2024-03-02T13:06:05;98896.94;;;16.73;56.21
11525;BME280;5819;49.648;8.330;2024-03-02T13:08:33;98876.13;;;17.08;56.32
11525;BME280;5819;49.648;8.330;2024-03-02T13:11:02;98873.22;;;17.48;56.69
11525;BME280;5819;49.648;8.330;2024-03-02T13:13:32;98865.72;;;17.53;54.61
11525;BME280;5819;49.648;8.330;2024-03-02T13:16:01;98861.34;;;17.44;54.24
11525;BME280;5819;49.648;8.330;2024-03-02T13:18:30;98879.00;;;17.15;54.76
11525;BME280;5819;49.648;8.330;2024-03-02T13:20:58;98872.09;;;17.14;54.84
11525;BME280;5819;49.648;8.330;2024-03-02T13:23:27;98865.25;;;17.30;52.66